Time,TemperatureF,DewpointF,PressureIn,WindDirection,WindDirectionDegrees,WindSpeedMPH,WindSpeedGustMPH,Humidity,HourlyPrecipIn,Conditions,Clouds,dailyrainin,SoftwareType,DateUTC
2013-11-01 00:09:00,39.9,35.0,30.16,South,173,2.0,3.0,83,0.00,,,0.00,weatherlink.com 1.10,2013-11-01 07:09:00,
2013-11-01 00:25:00,39.7,35.0,30.16,South,173,1.0,3.0,83,0.00,,,0.00,weatherlink.com 1.10,2013-11-01 07:25:00,
2013-11-01 00:40:00,39.4,35.0,30.17,South,173,2.0,3.0,85,0.00,,,0.00,weatherlink.com 1.10,2013-11-01 07:40:00,
2013-11-01 00:55:00,39.3,35.0,30.17,South,173,2.0,3.0,85,0.00,,,0.00,weatherlink.com 1.10,2013-11-01 07:55:00,
2013-11-01 01:10:00,39.1,35.0,30.17,South,173,1.0,3.0,86,0.00,,,0.00,weatherlink.com 1.10,2013-11-01 08:10:00,
2013-11-01 01:25:00,38.9,35.0,30.17,South,173,2.0,3.0,86,0.00,,,0.00,weatherlink.com 1.10,2013-11-01 08:25:00,
2013-11-01 01:40:00,38.7,35.0,30.17,South,173,2.0,3.0,86,0.00,,,0.00,weatherlink.com 1.10,2013-11-01 08:40:00,
2013-11-01 01:55:00,38.5,35.0,30.17,South,173,1.0,3.0,86,0.00,,,0.00,weatherlink.com 1.10,2013-11-01 08:55:00,
2013-11-01 02:10:00,38.3,35.0,30.17,South,173,2.0,2.0,86,0.00,,,0.00,weatherlink.com 1.10,2013-11-01 09:10:00,
2013-11-01 02:25:00,38.2,34.0,30.17,South,173,2.0,3.0,86,0.00,,,0.00,weatherlink.com 1.10,2013-11-01 09:25:00,
2013-11-01 02:40:00,38.0,34.0,30.16,South,173,1.0,2.0,85,0.00,,,0.00,weatherlink.com 1.10,2013-11-01 09:40:00,
2013-11-01 02:55:00,37.9,34.0,30.16,South,173,1.0,3.0,85,0.00,,,0.00,weatherlink.com 1.10,2013-11-01 09:55:00,
2013-11-01 03:10:00,37.6,34.0,30.16,South,173,3.0,3.0,85,0.00,,,0.00,weatherlink.com 1.10,2013-11-01 10:10:00,
2013-11-01 03:25:00,37.6,33.0,30.16,South,173,1.0,3.0,84,0.00,,,0.00,weatherlink.com 1.10,2013-11-01 10:25:00,
2013-11-01 03:40:00,37.5,33.0,30.16,South,173,1.0,3.0,84,0.00,,,0.00,weatherlink.com 1.10,2013-11-01 10:40:00,
2013-11-01 03:55:00,37.5,33.0,30.16,South,173,2.0,3.0,84,0.00,,,0.00,weatherlink.com 1.10,2013-11-01 10:55:00,
2013-11-01 04:10:00,37.4,33.0,30.16,South,173,2.0,2.0,83,0.00,,,0.00,weatherlink.com 1.10,2013-11-01 11:10:00,
2013-11-01 04:25:00,37.3,33.0,30.16,South,173,1.0,3.0,83,0.00,,,0.00,weatherlink.com 1.10,2013-11-01 11:25:00,
2013-11-01 04:40:00,37.3,33.0,30.16,South,173,2.0,2.0,83,0.00,,,0.00,weatherlink.com 1.10,2013-11-01 11:40:00,
2013-11-01 04:55:00,37.2,33.0,30.16,South,173,2.0,3.0,84,0.00,,,0.00,weatherlink.com 1.10,2013-11-01 11:55:00,
2013-11-01 05:10:00,37.2,33.0,30.16,South,173,2.0,3.0,84,0.00,,,0.00,weatherlink.com 1.10,2013-11-01 12:10:00,
2013-11-01 05:25:00,37.2,33.0,30.16,South,173,0.0,2.0,84,0.00,,,0.00,weatherlink.com 1.10,2013-11-01 12:25:00,
2013-11-01 05:40:00,37.0,32.0,30.17,South,173,0.0,2.0,83,0.00,,,0.00,weatherlink.com 1.10,2013-11-01 12:40:00,
2013-11-01 05:55:00,36.8,32.0,30.17,South,173,0.0,3.0,83,0.00,,,0.00,weatherlink.com 1.10,2013-11-01 12:55:00,
2013-11-01 06:10:00,36.8,32.0,30.18,South,173,2.0,3.0,83,0.00,,,0.00,weatherlink.com 1.10,2013-11-01 13:10:00,
2013-11-01 06:25:00,36.8,32.0,30.18,South,173,2.0,3.0,83,0.00,,,0.00,weatherlink.com 1.10,2013-11-01 13:25:00,
2013-11-01 06:40:00,36.7,32.0,30.18,South,173,2.0,3.0,83,0.00,,,0.00,weatherlink.com 1.10,2013-11-01 13:40:00,
2013-11-01 06:55:00,36.7,32.0,30.18,South,173,1.0,3.0,84,0.00,,,0.00,weatherlink.com 1.10,2013-11-01 13:55:00,
2013-11-01 07:10:00,36.6,32.0,30.19,South,173,1.0,3.0,83,0.00,,,0.00,weatherlink.com 1.10,2013-11-01 14:10:00,
2013-11-01 07:25:00,36.6,32.0,30.19,South,173,0.0,3.0,83,0.00,,,0.00,weatherlink.com 1.10,2013-11-01 14:25:00,
2013-11-01 07:40:00,36.5,32.0,30.19,SSE,162,1.0,3.0,82,0.00,,,0.00,weatherlink.com 1.10,2013-11-01 14:40:00,
2013-11-01 07:55:00,36.8,32.0,30.19,SSE,162,1.0,3.0,82,0.00,,,0.00,weatherlink.com 1.10,2013-11-01 14:55:00,
2013-11-01 08:10:00,37.2,32.0,30.19,SSE,162,0.0,3.0,82,0.00,,,0.00,weatherlink.com 1.10,2013-11-01 15:10:00,
2013-11-01 08:25:00,37.8,33.0,30.19,SSE,162,2.0,3.0,82,0.00,,,0.00,weatherlink.com 1.10,2013-11-01 15:25:00,
2013-11-01 08:40:00,38.7,34.0,30.20,SSE,162,1.0,3.0,83,0.00,,,0.00,weatherlink.com 1.10,2013-11-01 15:40:00,
2013-11-01 08:55:00,40.0,36.0,30.20,ENE,74,1.0,4.0,84,0.00,,,0.00,weatherlink.com 1.10,2013-11-01 15:55:00,
2013-11-01 09:10:00,41.9,37.0,30.20,ENE,57,1.0,3.0,84,0.00,,,0.00,weatherlink.com 1.10,2013-11-01 16:10:00,
2013-11-01 09:25:00,45.3,40.0,30.20,NNE,22,1.0,3.0,81,0.00,,,0.00,weatherlink.com 1.10,2013-11-01 16:25:00,
2013-11-01 09:40:00,48.9,42.0,30.20,NNE,22,0.0,3.0,78,0.00,,,0.00,weatherlink.com 1.10,2013-11-01 16:40:00,
2013-11-01 09:56:00,52.6,46.0,30.20,NNE,22,0.0,1.0,78,0.00,,,0.00,weatherlink.com 1.10,2013-11-01 16:56:00,
2013-11-01 10:11:00,56.7,48.0,30.19,NNE,22,0.0,1.0,72,0.00,,,0.00,weatherlink.com 1.10,2013-11-01 17:11:00,
2013-11-01 10:26:00,60.5,49.0,30.19,NNE,22,0.0,1.0,65,0.00,,,0.00,weatherlink.com 1.10,2013-11-01 17:26:00,
2013-11-01 10:41:00,65.0,39.0,30.19,NNE,22,0.0,0.0,38,0.00,,,0.00,weatherlink.com 1.10,2013-11-01 17:41:00,
2013-11-01 10:56:00,69.5,32.0,30.18,SSE,166,1.0,3.0,25,0.00,,,0.00,weatherlink.com 1.10,2013-11-01 17:56:00,
2013-11-01 11:11:00,71.8,30.0,30.18,SSE,165,0.0,3.0,21,0.00,,,0.00,weatherlink.com 1.10,2013-11-01 18:11:00,
2013-11-01 11:26:00,73.0,32.0,30.18,South,186,0.0,3.0,22,0.00,,,0.00,weatherlink.com 1.10,2013-11-01 18:26:00,
2013-11-01 11:41:00,73.9,34.0,30.18,South,188,0.0,3.0,23,0.00,,,0.00,weatherlink.com 1.10,2013-11-01 18:41:00,
2013-11-01 11:56:00,74.3,34.0,30.17,South,171,0.0,3.0,23,0.00,,,0.00,weatherlink.com 1.10,2013-11-01 18:56:00,
2013-11-01 12:11:00,73.9,34.0,30.17,SSW,194,1.0,6.0,23,0.00,,,0.00,weatherlink.com 1.10,2013-11-01 19:11:00,
2013-11-01 12:26:00,74.1,33.0,30.17,SW,227,0.0,3.0,22,0.00,,,0.00,weatherlink.com 1.10,2013-11-01 19:26:00,
2013-11-01 12:41:00,74.2,32.0,30.16,SSW,192,0.0,4.0,21,0.00,,,0.00,weatherlink.com 1.10,2013-11-01 19:41:00,
2013-11-01 12:56:00,74.4,32.0,30.16,SSE,155,0.0,5.0,21,0.00,,,0.00,weatherlink.com 1.10,2013-11-01 19:56:00,
2013-11-01 13:11:00,74.2,32.0,30.15,SW,214,2.0,7.0,21,0.00,,,0.00,weatherlink.com 1.10,2013-11-01 20:11:00,
2013-11-01 13:26:00,73.7,36.0,30.14,SSW,196,1.0,6.0,25,0.00,,,0.00,weatherlink.com 1.10,2013-11-01 20:26:00,
2013-11-01 13:41:00,73.4,32.0,30.14,South,170,1.0,6.0,22,0.00,,,0.00,weatherlink.com 1.10,2013-11-01 20:41:00,
2013-11-01 13:56:00,73.1,32.0,30.13,ESE,109,0.0,6.0,22,0.00,,,0.00,weatherlink.com 1.10,2013-11-01 20:56:00,
2013-11-01 14:11:00,73.7,31.0,30.12,SSW,203,0.0,5.0,21,0.00,,,0.00,weatherlink.com 1.10,2013-11-01 21:11:00,
2013-11-01 14:26:00,73.4,32.0,30.12,SSW,205,0.0,7.0,22,0.00,,,0.00,weatherlink.com 1.10,2013-11-01 21:26:00,
2013-11-01 14:41:00,73.1,31.0,30.12,SSE,156,4.0,6.0,21,0.00,,,0.00,weatherlink.com 1.10,2013-11-01 21:41:00,
2013-11-01 14:56:00,72.9,34.0,30.11,SSE,162,2.0,6.0,24,0.00,,,0.00,weatherlink.com 1.10,2013-11-01 21:56:00,
2013-11-01 15:11:00,72.6,33.0,30.11,SE,142,0.0,5.0,23,0.00,,,0.00,weatherlink.com 1.10,2013-11-01 22:11:00,
2013-11-01 15:26:00,72.7,34.0,30.11,South,179,0.0,4.0,24,0.00,,,0.00,weatherlink.com 1.10,2013-11-01 22:26:00,
2013-11-01 15:41:00,72.5,36.0,30.11,South,177,1.0,4.0,26,0.00,,,0.00,weatherlink.com 1.10,2013-11-01 22:41:00,
2013-11-01 15:56:00,72.2,33.0,30.11,SSW,200,3.0,6.0,24,0.00,,,0.00,weatherlink.com 1.10,2013-11-01 22:56:00,
2013-11-01 16:11:00,71.8,34.0,30.10,SE,140,0.0,6.0,25,0.00,,,0.00,weatherlink.com 1.10,2013-11-01 23:11:00,
2013-11-01 16:26:00,71.3,33.0,30.10,South,177,0.0,3.0,24,0.00,,,0.00,weatherlink.com 1.10,2013-11-01 23:26:00,
2013-11-01 16:41:00,70.6,31.0,30.09,South,183,0.0,2.0,23,0.00,,,0.00,weatherlink.com 1.10,2013-11-01 23:41:00,
2013-11-01 16:57:00,69.8,30.0,30.09,SE,133,1.0,4.0,23,0.00,,,0.00,weatherlink.com 1.10,2013-11-01 23:57:00,
2013-11-01 17:27:00,66.7,37.0,30.08,SE,133,0.0,2.0,33,0.00,,,0.00,weatherlink.com 1.10,2013-11-02 00:27:00,
2013-11-01 17:42:00,64.4,39.0,30.07,SE,133,0.0,2.0,40,0.00,,,0.00,weatherlink.com 1.10,2013-11-02 00:42:00,
2013-11-01 17:57:00,61.5,40.0,30.07,SE,133,0.0,2.0,45,0.00,,,0.00,weatherlink.com 1.10,2013-11-02 00:57:00,
2013-11-01 18:12:00,58.9,40.0,30.08,SE,133,0.0,2.0,49,0.00,,,0.00,weatherlink.com 1.10,2013-11-02 01:12:00,
2013-11-01 18:27:00,56.5,38.0,30.08,SE,133,1.0,2.0,51,0.00,,,0.00,weatherlink.com 1.10,2013-11-02 01:27:00,
2013-11-01 18:42:00,54.8,38.0,30.08,SE,133,0.0,2.0,54,0.00,,,0.00,weatherlink.com 1.10,2013-11-02 01:42:00,
2013-11-01 18:57:00,53.2,38.0,30.09,SE,133,0.0,0.0,57,0.00,,,0.00,weatherlink.com 1.10,2013-11-02 01:57:00,
2013-11-01 19:12:00,51.7,38.0,30.09,SE,133,2.0,2.0,59,0.00,,,0.00,weatherlink.com 1.10,2013-11-02 02:12:00,
2013-11-01 19:27:00,50.4,37.0,30.09,SE,133,1.0,2.0,61,0.00,,,0.00,weatherlink.com 1.10,2013-11-02 02:27:00,
2013-11-01 19:42:00,49.5,37.0,30.08,SE,133,2.0,2.0,62,0.00,,,0.00,weatherlink.com 1.10,2013-11-02 02:42:00,
2013-11-01 19:57:00,48.5,36.0,30.08,East,94,2.0,3.0,63,0.00,,,0.00,weatherlink.com 1.10,2013-11-02 02:57:00,
2013-11-01 20:12:00,47.6,36.0,30.08,East,86,1.0,3.0,64,0.00,,,0.00,weatherlink.com 1.10,2013-11-02 03:12:00,
2013-11-01 20:27:00,46.9,36.0,30.07,East,86,2.0,2.0,65,0.00,,,0.00,weatherlink.com 1.10,2013-11-02 03:27:00,
2013-11-01 20:42:00,46.2,35.0,30.07,East,86,1.0,3.0,66,0.00,,,0.00,weatherlink.com 1.10,2013-11-02 03:42:00,
2013-11-01 20:57:00,45.7,36.0,30.08,East,86,1.0,3.0,68,0.00,,,0.00,weatherlink.com 1.10,2013-11-02 03:57:00,
2013-11-01 21:12:00,45.1,35.0,30.08,East,84,1.0,3.0,69,0.00,,,0.00,weatherlink.com 1.10,2013-11-02 04:12:00,
2013-11-01 21:27:00,44.7,35.0,30.08,East,84,2.0,3.0,69,0.00,,,0.00,weatherlink.com 1.10,2013-11-02 04:27:00,
2013-11-01 21:42:00,44.3,35.0,30.08,East,82,0.0,3.0,69,0.00,,,0.00,weatherlink.com 1.10,2013-11-02 04:42:00,
2013-11-01 21:57:00,43.9,34.0,30.07,East,82,0.0,2.0,69,0.00,,,0.00,weatherlink.com 1.10,2013-11-02 04:57:00,
2013-11-01 22:12:00,43.5,34.0,30.07,East,82,0.0,2.0,69,0.00,,,0.00,weatherlink.com 1.10,2013-11-02 05:12:00,
2013-11-01 22:27:00,43.3,34.0,30.08,East,82,1.0,2.0,70,0.00,,,0.00,weatherlink.com 1.10,2013-11-02 05:27:00,
2013-11-01 22:42:00,43.2,34.0,30.08,East,82,2.0,2.0,70,0.00,,,0.00,weatherlink.com 1.10,2013-11-02 05:42:00,
2013-11-01 22:57:00,43.1,33.0,30.09,East,82,2.0,3.0,68,0.00,,,0.00,weatherlink.com 1.10,2013-11-02 05:57:00,
2013-11-01 23:12:00,42.9,33.0,30.09,ENE,78,1.0,3.0,69,0.00,,,0.00,weatherlink.com 1.10,2013-11-02 06:12:00,
2013-11-01 23:27:00,42.7,34.0,30.09,ENE,57,3.0,3.0,71,0.00,,,0.00,weatherlink.com 1.10,2013-11-02 06:27:00,
2013-11-01 23:42:00,42.5,34.0,30.09,NNE,21,2.0,3.0,72,0.00,,,0.00,weatherlink.com 1.10,2013-11-02 06:42:00,
2013-11-01 23:57:00,42.3,34.0,30.08,North,9,1.0,3.0,73,0.00,,,0.00,weatherlink.com 1.10,2013-11-02 06:57:00,